createdAt,value
2019-01-19T09:18:08.949Z,-0.78
2019-01-19T09:20:35.761Z,-0.81
2019-01-19T09:23:09.984Z,-0.68
2019-01-19T09:25:37.515Z,-0.45
2019-01-19T09:28:04.167Z,-0.37
2019-01-19T09:30:31.327Z,-0.28
2019-01-19T09:32:59.192Z,-0.25
2019-01-19T09:35:26.579Z,-0.25
2019-01-19T09:37:53.636Z,-0.15
2019-01-19T09:40:21.740Z,-0.08
2019-01-19T09:42:49.032Z,-0.03
2019-01-19T09:45:15.989Z,-0.01
2019-01-19T09:47:42.805Z,-0.02
2019-01-19T09:50:11.519Z,0.05
2019-01-19T09:52:39.217Z,0.02
2019-01-19T09:55:06.976Z,0.17
2019-01-19T09:57:34.536Z,0.20
2019-01-19T10:00:03.023Z,0.32
2019-01-19T10:02:31.726Z,0.44
2019-01-19T10:04:58.501Z,0.50
2019-01-19T10:07:25.168Z,0.45
2019-01-19T10:09:51.998Z,0.57
2019-01-19T10:12:18.808Z,0.47
2019-01-19T10:14:46.120Z,0.42
2019-01-19T10:17:13.781Z,0.33
2019-01-19T10:19:40.741Z,0.27
2019-01-19T10:22:07.422Z,0.35
2019-01-19T10:24:34.615Z,0.46
2019-01-19T10:27:02.890Z,0.68
2019-01-19T10:29:31.373Z,0.76
2019-01-19T10:31:58.530Z,0.78
2019-01-19T10:34:25.472Z,0.74
2019-01-19T10:36:52.648Z,0.82
2019-01-19T10:39:20.658Z,0.88
2019-01-19T10:41:48.755Z,0.79
2019-01-19T10:44:16.775Z,0.94
2019-01-19T10:46:44.140Z,1.02
2019-01-19T10:49:10.960Z,1.13
2019-01-19T10:51:37.890Z,1.22
2019-01-19T10:54:05.024Z,1.33
2019-01-19T10:56:32.442Z,1.37
2019-01-19T10:58:59.125Z,1.46
2019-01-19T11:01:26.670Z,1.48
2019-01-19T11:03:54.623Z,1.48
2019-01-19T11:06:21.991Z,1.51
2019-01-19T11:08:49.622Z,1.50
2019-01-19T11:11:17.772Z,1.65
2019-01-19T11:13:44.565Z,1.66
2019-01-19T11:16:11.901Z,1.55
2019-01-19T11:18:39.072Z,1.62
2019-01-19T11:21:06.329Z,1.76
2019-01-19T11:23:39.618Z,1.73
2019-01-19T11:26:04.801Z,1.73
2019-01-19T11:28:32.172Z,1.83
2019-01-19T11:31:01.047Z,1.94
2019-01-19T11:33:28.323Z,1.94
2019-01-19T11:35:55.504Z,1.93
2019-01-19T11:38:22.556Z,1.98
2019-01-19T11:40:52.322Z,2.11
2019-01-19T11:43:19.159Z,2.08
2019-01-19T11:45:45.914Z,2.14
2019-01-19T11:48:13.454Z,2.04
2019-01-19T11:50:40.539Z,1.90
2019-01-19T11:53:07.542Z,2.01
2019-01-19T11:55:34.376Z,2.12
2019-01-19T11:58:03.506Z,2.22
2019-01-19T12:00:32.654Z,2.26
2019-01-19T12:02:59.433Z,2.17
2019-01-19T12:05:26.869Z,2.27
2019-01-19T12:07:54.601Z,2.24
2019-01-19T12:10:25.190Z,2.31
2019-01-19T12:12:52.444Z,2.42
2019-01-19T12:15:19.628Z,2.55
2019-01-19T12:17:46.935Z,2.58
2019-01-19T12:20:18.300Z,2.61
2019-01-19T12:22:45.639Z,2.59
2019-01-19T12:25:14.693Z,2.90
2019-01-19T12:27:41.897Z,2.99
2019-01-19T12:30:12.993Z,3.08
2019-01-19T12:32:40.177Z,3.16
2019-01-19T12:35:07.060Z,3.59
2019-01-19T12:37:33.768Z,3.72
2019-01-19T12:40:03.456Z,4.09
2019-01-19T12:42:30.571Z,3.90
2019-01-19T12:44:57.370Z,3.94
